createdAt,value
2023-05-04T00:00:15.921Z,2.37
2023-05-04T00:02:45.672Z,2.35
2023-05-04T00:05:15.275Z,2.42
2023-05-04T00:07:47.375Z,2.45
2023-05-04T00:10:17.439Z,2.39
2023-05-04T00:12:47.016Z,2.37
2023-05-04T00:15:16.763Z,2.28
2023-05-04T00:17:46.357Z,2.27
2023-05-04T00:20:16.423Z,2.20
2023-05-04T00:22:48.544Z,2.11
2023-05-04T00:25:18.051Z,2.05
2023-05-04T00:27:47.560Z,1.99
2023-05-04T00:30:17.701Z,1.93
2023-05-04T00:32:47.229Z,1.92
2023-05-04T00:35:20.552Z,1.93
2023-05-04T00:37:52.662Z,1.93
2023-05-04T00:40:22.593Z,1.91
2023-05-04T00:42:52.212Z,1.84
2023-05-04T00:45:21.903Z,1.83
2023-05-04T00:47:52.412Z,1.79
2023-05-04T00:50:22.542Z,1.77
2023-05-04T00:52:58.290Z,1.69
2023-05-04T00:55:28.128Z,1.61
2023-05-04T00:57:57.701Z,1.56
2023-05-04T01:00:27.421Z,1.49
2023-05-04T01:02:57.692Z,1.57
2023-05-04T01:05:33.146Z,1.47
2023-05-04T01:08:09.499Z,1.39
2023-05-04T01:10:46.387Z,1.34
2023-05-04T01:13:18.389Z,1.35
2023-05-04T01:15:48.715Z,1.30
2023-05-04T01:18:18.332Z,1.32
2023-05-04T01:20:48.037Z,1.27
2023-05-04T01:23:20.540Z,1.19
2023-05-04T01:26:05.590Z,1.20
2023-05-04T01:28:41.715Z,1.18
2023-05-04T01:31:17.342Z,1.13
2023-05-04T01:33:47.831Z,1.24
2023-05-04T01:36:17.751Z,1.25
2023-05-04T01:38:50.243Z,1.22
2023-05-04T01:41:20.016Z,1.17
2023-05-04T01:43:49.680Z,1.21
2023-05-04T01:46:19.245Z,1.14
2023-05-04T01:48:48.828Z,1.11
2023-05-04T01:51:18.334Z,1.11
2023-05-04T01:53:50.424Z,1.14
2023-05-04T01:56:19.993Z,1.11
2023-05-04T01:58:49.514Z,1.05
2023-05-04T02:01:19.064Z,1.02
2023-05-04T02:03:48.689Z,1.02
2023-05-04T02:06:18.309Z,1.02
2023-05-04T02:08:51.187Z,1.06
2023-05-04T02:11:21.210Z,1.05
2023-05-04T02:13:50.746Z,1.05
2023-05-04T02:16:20.366Z,1.04
2023-05-04T02:18:49.928Z,0.95
2023-05-04T02:21:19.750Z,0.96
2023-05-04T02:23:52.001Z,0.97
2023-05-04T02:26:21.627Z,0.89
2023-05-04T02:28:51.184Z,0.88
2023-05-04T02:31:20.912Z,0.85
2023-05-04T02:33:50.497Z,0.88
2023-05-04T02:36:20.039Z,0.83
2023-05-04T02:38:52.684Z,0.82
2023-05-04T02:41:22.195Z,0.77
2023-05-04T02:43:51.828Z,0.80
2023-05-04T02:46:22.294Z,0.73
2023-05-04T02:48:51.892Z,0.73
2023-05-04T02:51:21.972Z,0.77
2023-05-04T02:53:54.051Z,0.70
2023-05-04T02:56:24.455Z,0.65
2023-05-04T02:58:54.036Z,0.63
2023-05-04T03:01:23.656Z,0.59
2023-05-04T03:03:53.232Z,0.63
2023-05-04T03:06:22.749Z,0.59
2023-05-04T03:08:54.884Z,0.54
2023-05-04T03:11:24.485Z,0.55
2023-05-04T03:13:54.018Z,0.62
2023-05-04T03:16:23.761Z,0.56
2023-05-04T03:21:36.737Z,0.60
2023-05-04T03:24:09.560Z,0.68
2023-05-04T03:26:39.103Z,0.66
2023-05-04T03:29:08.640Z,0.67
2023-05-04T03:31:38.226Z,0.80
2023-05-04T03:34:09.798Z,1.09
2023-05-04T03:36:39.330Z,1.43
2023-05-04T03:39:11.473Z,1.77
2023-05-04T03:41:41.054Z,2.34
2023-05-04T03:44:10.816Z,2.98
2023-05-04T03:46:40.400Z,3.75
2023-05-04T03:49:10.031Z,4.64
2023-05-04T03:51:39.673Z,5.65
2023-05-04T03:54:11.914Z,6.68
2023-05-04T03:56:41.418Z,7.73
2023-05-04T03:59:11.051Z,8.64
2023-05-04T04:01:40.635Z,9.36
2023-05-04T04:04:10.178Z,10.20
2023-05-04T04:06:41.936Z,10.61
2023-05-04T04:09:16.121Z,11.62
2023-05-04T04:11:45.709Z,12.28
2023-05-04T04:14:16.297Z,12.13
2023-05-04T04:16:46.002Z,12.18
2023-05-04T04:19:15.574Z,13.09
2023-05-04T04:21:45.255Z,11.89
2023-05-04T04:24:17.386Z,10.12
2023-05-04T04:26:47.076Z,9.95
2023-05-04T04:29:16.647Z,10.12
2023-05-04T04:31:48.987Z,10.34
2023-05-04T04:34:18.881Z,9.46
2023-05-04T04:36:48.400Z,11.11
2023-05-04T04:39:20.832Z,13.52
2023-05-04T04:41:50.556Z,14.54
2023-05-04T04:44:20.940Z,14.62
2023-05-04T04:46:50.547Z,12.95
2023-05-04T04:49:20.542Z,17.00
2023-05-04T04:51:50.579Z,17.48
2023-05-04T04:54:22.678Z,18.85
2023-05-04T04:56:52.204Z,19.93
2023-05-04T04:59:24.975Z,17.30
2023-05-04T05:01:54.702Z,13.85
2023-05-04T05:04:25.384Z,13.72
2023-05-04T05:06:55.005Z,12.64
2023-05-04T05:09:27.548Z,13.45
2023-05-04T05:11:57.153Z,13.28
2023-05-04T05:14:27.664Z,12.87
2023-05-04T05:16:57.723Z,16.00
2023-05-04T05:19:27.711Z,14.68
2023-05-04T05:21:57.258Z,14.48
2023-05-04T05:24:29.386Z,15.49
2023-05-04T05:26:59.162Z,16.40
2023-05-04T05:29:28.739Z,18.87
2023-05-04T05:31:58.325Z,19.66
2023-05-04T05:34:27.921Z,19.76
2023-05-04T05:36:57.456Z,15.96
2023-05-04T05:39:29.584Z,16.27
2023-05-04T05:42:00.222Z,18.08
2023-05-04T05:44:30.043Z,19.39
2023-05-04T05:46:59.630Z,20.66
2023-05-04T05:49:29.154Z,22.26
2023-05-04T05:51:59.184Z,22.33
2023-05-04T05:54:33.307Z,23.36
2023-05-04T05:57:02.964Z,22.62
2023-05-04T05:59:32.506Z,23.03
2023-05-04T06:02:03.527Z,24.22
2023-05-04T06:04:33.084Z,21.54
2023-05-04T06:07:02.691Z,22.09
2023-05-04T06:09:35.128Z,23.78
2023-05-04T06:12:06.534Z,23.49
2023-05-04T06:14:36.250Z,23.88
2023-05-04T06:17:05.786Z,24.79
2023-05-04T06:19:38.335Z,23.90
2023-05-04T06:22:08.429Z,25.87
2023-05-04T06:24:40.560Z,21.06
2023-05-04T06:27:10.078Z,23.33
2023-05-04T06:29:41.515Z,26.08
2023-05-04T06:32:11.307Z,23.17
2023-05-04T06:34:41.104Z,23.60
2023-05-04T06:37:14.012Z,23.29
2023-05-04T06:39:46.979Z,22.31
2023-05-04T06:42:16.549Z,22.86
2023-05-04T06:44:46.128Z,23.91
2023-05-04T06:47:15.865Z,24.49
2023-05-04T06:49:45.435Z,22.26
2023-05-04T06:52:15.173Z,22.96
2023-05-04T06:54:47.312Z,25.93
2023-05-04T06:57:16.852Z,26.30
2023-05-04T06:59:46.661Z,24.86
2023-05-04T07:02:16.533Z,26.50
2023-05-04T07:04:46.040Z,22.90
2023-05-04T07:07:15.866Z,22.03
2023-05-04T07:09:48.909Z,21.06
2023-05-04T07:12:18.795Z,20.53
2023-05-04T07:14:48.362Z,23.39
2023-05-04T07:17:17.915Z,24.84
2023-05-04T07:19:50.062Z,24.16
2023-05-04T07:22:21.000Z,24.61
2023-05-04T07:24:53.133Z,23.19
2023-05-04T07:27:22.677Z,21.32
2023-05-04T07:29:52.899Z,22.09
2023-05-04T07:32:22.615Z,21.79
2023-05-04T07:34:52.239Z,20.03
2023-05-04T07:37:21.896Z,23.32
2023-05-04T07:39:54.161Z,23.03
2023-05-04T07:42:23.727Z,19.62
2023-05-04T07:44:54.888Z,20.51
2023-05-04T07:47:24.747Z,19.76
2023-05-04T07:49:54.455Z,18.67
2023-05-04T07:52:24.025Z,19.24
2023-05-04T07:54:57.687Z,20.09
2023-05-04T07:57:27.536Z,20.24
2023-05-04T07:59:57.585Z,19.53
2023-05-04T08:02:27.345Z,20.86
2023-05-04T08:04:57.061Z,19.28
2023-05-04T08:07:26.842Z,18.22
2023-05-04T08:09:59.007Z,17.17
2023-05-04T08:12:28.910Z,20.06
2023-05-04T08:14:58.492Z,19.87
2023-05-04T08:17:28.509Z,21.13
2023-05-04T08:19:59.179Z,20.13
2023-05-04T08:22:28.715Z,19.37
2023-05-04T08:25:00.868Z,18.05
2023-05-04T08:27:30.494Z,18.09
2023-05-04T08:30:00.370Z,19.30
2023-05-04T08:32:32.531Z,21.48
2023-05-04T08:35:02.881Z,21.55
2023-05-04T08:37:32.808Z,21.06
2023-05-04T08:40:05.756Z,22.48
2023-05-04T08:42:36.579Z,23.41
2023-05-04T08:45:06.563Z,22.80
2023-05-04T08:47:36.325Z,21.64
2023-05-04T08:50:07.649Z,22.11
2023-05-04T08:52:39.644Z,21.83
2023-05-04T08:55:14.772Z,19.19
2023-05-04T08:57:45.710Z,17.57
2023-05-04T09:00:19.178Z,17.36
2023-05-04T09:02:49.912Z,17.78
2023-05-04T09:05:19.952Z,18.42
2023-05-04T09:07:51.240Z,19.68
2023-05-04T09:10:23.626Z,20.92
2023-05-04T09:12:53.796Z,22.31
2023-05-04T09:15:24.289Z,22.74
2023-05-04T09:18:05.505Z,23.16
2023-05-04T09:20:47.054Z,23.46
2023-05-04T09:23:18.276Z,21.85
2023-05-04T09:25:55.244Z,20.92
2023-05-04T09:28:36.392Z,21.72
2023-05-04T09:31:06.389Z,19.76
2023-05-04T09:33:37.136Z,19.07
2023-05-04T09:36:17.212Z,21.07
2023-05-04T09:38:46.873Z,22.33
2023-05-04T09:41:19.969Z,20.52
2023-05-04T09:43:49.491Z,20.72
2023-05-04T09:46:20.151Z,21.92
2023-05-04T09:48:57.030Z,22.61
2023-05-04T09:51:28.356Z,23.32
2023-05-04T09:53:59.767Z,23.83
2023-05-04T09:56:44.829Z,23.43
2023-05-04T09:59:15.511Z,23.28
2023-05-04T10:01:46.264Z,22.81
2023-05-04T10:04:16.432Z,21.30
2023-05-04T10:06:46.356Z,22.72
2023-05-04T10:09:16.834Z,20.42
2023-05-04T10:11:48.976Z,20.64
2023-05-04T10:14:18.650Z,21.03
2023-05-04T10:16:57.278Z,22.13
2023-05-04T10:19:42.134Z,21.38
2023-05-04T10:22:27.244Z,22.61
2023-05-04T10:25:20.863Z,22.63
2023-05-04T10:28:03.804Z,22.79
2023-05-04T10:30:33.679Z,23.67
2023-05-04T10:33:03.400Z,23.80
2023-05-04T10:35:33.109Z,22.22
2023-05-04T10:38:02.715Z,22.22
2023-05-04T10:40:37.865Z,22.33
2023-05-04T10:43:11.777Z,22.29
2023-05-04T10:45:42.858Z,22.24
2023-05-04T10:48:12.923Z,22.27
2023-05-04T10:50:46.595Z,19.96
2023-05-04T10:53:17.763Z,21.27
2023-05-04T10:55:49.211Z,20.46
2023-05-04T10:58:31.662Z,21.27
2023-05-04T11:01:01.286Z,21.65
2023-05-04T11:03:42.243Z,20.95
2023-05-04T11:06:19.632Z,20.43
2023-05-04T11:09:02.804Z,20.10
2023-05-04T11:11:32.399Z,20.23
2023-05-04T11:14:05.165Z,20.77
2023-05-04T11:16:34.739Z,20.80
2023-05-04T11:19:12.615Z,19.80
2023-05-04T11:21:43.535Z,18.29
2023-05-04T11:24:13.275Z,18.15
2023-05-04T11:26:51.063Z,19.97
2023-05-04T11:29:30.514Z,20.48
2023-05-04T11:32:00.093Z,20.54
2023-05-04T11:34:29.699Z,19.75
2023-05-04T11:36:59.494Z,19.58
2023-05-04T11:39:29.228Z,19.28
2023-05-04T11:42:01.137Z,19.19
2023-05-04T11:44:33.772Z,19.29
2023-05-04T11:47:03.481Z,18.84
2023-05-04T11:49:34.071Z,19.80
2023-05-04T11:52:09.946Z,18.44
2023-05-04T11:54:39.755Z,19.47
2023-05-04T11:57:09.319Z,18.86
2023-05-04T11:59:51.211Z,17.38
2023-05-04T12:02:21.680Z,17.14
2023-05-04T12:04:51.343Z,16.53
2023-05-04T12:07:21.139Z,16.23
2023-05-04T12:09:51.871Z,16.61
2023-05-04T12:12:22.324Z,16.56
2023-05-04T12:14:57.065Z,16.39
2023-05-04T12:17:26.852Z,16.00
2023-05-04T12:19:58.225Z,15.97
2023-05-04T12:22:33.075Z,16.18
2023-05-04T12:25:03.456Z,16.81
2023-05-04T12:27:33.125Z,16.55
2023-05-04T12:32:39.658Z,16.66
2023-05-04T12:35:09.962Z,16.62
2023-05-04T12:37:39.661Z,16.78
2023-05-04T12:40:27.178Z,16.77
2023-05-04T12:42:57.591Z,16.42
2023-05-04T12:45:29.710Z,16.41
2023-05-04T12:47:59.263Z,16.46
2023-05-04T12:50:28.813Z,16.25
2023-05-04T12:52:58.444Z,16.68
2023-05-04T12:55:27.970Z,16.84
2023-05-04T12:57:57.526Z,17.02
2023-05-04T13:00:31.458Z,16.91
2023-05-04T13:03:01.223Z,16.92
2023-05-04T13:05:31.089Z,16.79
2023-05-04T13:08:01.105Z,16.71
2023-05-04T13:10:30.771Z,16.77
2023-05-04T13:13:00.336Z,16.77
2023-05-04T13:15:32.521Z,17.11
2023-05-04T13:18:02.234Z,16.71
2023-05-04T13:20:31.773Z,16.73
2023-05-04T13:23:01.308Z,16.95
2023-05-04T13:25:30.805Z,16.91
2023-05-04T13:28:00.547Z,16.81
2023-05-04T13:30:32.768Z,17.19
2023-05-04T13:33:07.639Z,17.33
2023-05-04T13:35:43.782Z,17.92
2023-05-04T13:38:13.374Z,17.87
2023-05-04T13:40:42.943Z,17.54
2023-05-04T13:43:12.488Z,17.34
2023-05-04T13:45:44.567Z,16.97
2023-05-04T13:48:14.140Z,16.61
2023-05-04T13:50:43.653Z,16.98
2023-05-04T13:53:13.789Z,16.80
2023-05-04T13:55:43.440Z,16.82
2023-05-04T13:58:12.964Z,17.13
2023-05-04T14:00:45.081Z,17.45
2023-05-04T14:03:14.684Z,17.75
2023-05-04T14:05:44.477Z,17.20
2023-05-04T14:08:13.983Z,17.12
2023-05-04T14:10:43.485Z,16.85
2023-05-04T14:13:13.100Z,17.46
2023-05-04T14:15:45.278Z,17.77
2023-05-04T14:18:14.817Z,17.75
2023-05-04T14:20:44.324Z,17.42
2023-05-04T14:23:13.873Z,17.59
2023-05-04T14:25:44.216Z,17.35
2023-05-04T14:28:15.288Z,17.29
2023-05-04T14:30:47.437Z,17.09
2023-05-04T14:33:17.007Z,17.06
2023-05-04T14:35:48.346Z,17.04
2023-05-04T14:38:18.248Z,17.35
2023-05-04T14:40:49.533Z,17.11
2023-05-04T14:43:19.351Z,17.16
2023-05-04T14:45:51.586Z,17.26
2023-05-04T14:48:23.310Z,17.39
2023-05-04T14:50:52.862Z,17.22
2023-05-04T14:53:22.493Z,17.59
2023-05-04T14:55:52.494Z,17.71
2023-05-04T14:58:22.064Z,17.86
2023-05-04T15:00:54.245Z,17.77
2023-05-04T15:03:24.093Z,17.80
2023-05-04T15:05:53.718Z,18.00
2023-05-04T15:08:23.219Z,17.42
2023-05-04T15:10:52.807Z,17.56
2023-05-04T15:13:22.313Z,17.71
2023-05-04T15:15:54.535Z,17.32
2023-05-04T15:18:24.250Z,17.01
2023-05-04T15:20:53.795Z,17.23
2023-05-04T15:23:24.573Z,16.95
2023-05-04T15:25:54.151Z,17.16
2023-05-04T15:28:23.654Z,17.40
2023-05-04T15:30:56.467Z,17.32
2023-05-04T15:33:25.982Z,17.54
2023-05-04T15:35:55.553Z,17.82
2023-05-04T15:38:25.099Z,17.43
2023-05-04T15:40:54.655Z,17.71
2023-05-04T15:43:24.227Z,17.78
2023-05-04T15:45:56.428Z,17.77
2023-05-04T15:48:26.529Z,17.52
2023-05-04T15:50:56.301Z,17.90
2023-05-04T15:53:25.913Z,18.12
2023-05-04T15:55:55.568Z,17.65
2023-05-04T15:58:25.098Z,17.67
2023-05-04T16:00:59.361Z,17.56
2023-05-04T16:03:28.924Z,17.44
2023-05-04T16:05:58.566Z,17.29
2023-05-04T16:08:28.215Z,17.47
2023-05-04T16:10:58.182Z,17.60
2023-05-04T16:13:27.730Z,17.58
2023-05-04T16:16:00.805Z,17.38
2023-05-04T16:18:30.941Z,17.42
2023-05-04T16:21:00.524Z,17.33
2023-05-04T16:23:31.242Z,17.36
2023-05-04T16:26:00.997Z,17.28
2023-05-04T16:28:30.843Z,17.18
2023-05-04T16:31:02.979Z,17.15
2023-05-04T16:33:32.672Z,16.62
2023-05-04T16:36:02.612Z,16.60
2023-05-04T16:38:32.156Z,16.51
2023-05-04T16:41:01.802Z,16.46
2023-05-04T16:43:32.086Z,16.61
2023-05-04T16:46:04.941Z,16.71
2023-05-04T16:48:34.630Z,16.69
2023-05-04T16:51:04.140Z,16.80
2023-05-04T16:53:33.704Z,16.69
2023-05-04T16:56:03.225Z,16.48
2023-05-04T16:58:32.822Z,16.35
2023-05-04T17:01:04.998Z,16.42
2023-05-04T17:03:35.756Z,16.25
2023-05-04T17:06:05.366Z,16.25
2023-05-04T17:08:35.078Z,16.20
2023-05-04T17:11:04.605Z,16.07
2023-05-04T17:13:34.134Z,15.92
2023-05-04T17:16:06.516Z,15.99
2023-05-04T17:18:36.052Z,15.89
2023-05-04T17:21:05.639Z,15.77
2023-05-04T17:23:35.264Z,15.69
2023-05-04T17:28:39.723Z,15.58
2023-05-04T17:31:12.849Z,15.47
2023-05-04T17:33:42.490Z,15.45
2023-05-04T17:36:12.467Z,15.41
2023-05-04T17:38:43.689Z,15.34
2023-05-04T17:41:13.378Z,15.24
2023-05-04T17:43:42.970Z,15.15
2023-05-04T17:46:15.350Z,15.07
2023-05-04T17:48:46.121Z,15.02
2023-05-04T17:51:17.000Z,14.98
2023-05-04T17:53:46.633Z,14.91
2023-05-04T17:56:16.219Z,14.82
2023-05-04T17:58:45.783Z,14.74
2023-05-04T18:01:18.522Z,14.68
2023-05-04T18:03:48.243Z,14.59
2023-05-04T18:06:17.844Z,14.59
2023-05-04T18:08:47.363Z,14.48
2023-05-04T18:11:16.887Z,14.38
2023-05-04T18:13:46.411Z,14.33
2023-05-04T18:16:18.585Z,14.25
2023-05-04T18:18:48.157Z,14.12
2023-05-04T18:21:17.754Z,14.03
2023-05-04T18:23:47.508Z,13.92
2023-05-04T18:26:22.878Z,13.84
2023-05-04T18:28:53.055Z,13.73
2023-05-04T18:31:25.836Z,13.68
2023-05-04T18:33:55.506Z,13.62
2023-05-04T18:36:25.028Z,13.61
2023-05-04T18:38:54.657Z,13.52
2023-05-04T18:41:24.142Z,13.41
2023-05-04T18:43:55.945Z,13.38
2023-05-04T18:46:28.183Z,13.32
2023-05-04T18:48:57.782Z,13.25
2023-05-04T18:51:28.985Z,13.36
2023-05-04T18:53:58.573Z,13.36
2023-05-04T18:56:28.404Z,13.28
2023-05-04T18:58:57.933Z,13.18
2023-05-04T19:01:30.268Z,13.17
2023-05-04T19:03:59.900Z,13.09
2023-05-04T19:06:29.598Z,13.16
2023-05-04T19:08:59.169Z,13.23
2023-05-04T19:11:28.846Z,13.20
2023-05-04T19:13:59.018Z,13.16
2023-05-04T19:16:31.348Z,12.92
2023-05-04T19:19:00.921Z,12.78
2023-05-04T19:21:30.593Z,12.71
2023-05-04T19:24:00.297Z,12.68
2023-05-04T19:26:30.006Z,12.70
2023-05-04T19:28:59.557Z,12.66
2023-05-04T19:31:31.846Z,12.57
2023-05-04T19:34:01.407Z,12.49
2023-05-04T19:36:30.936Z,12.42
2023-05-04T19:39:00.672Z,12.33
2023-05-04T19:41:30.270Z,12.22
2023-05-04T19:43:59.825Z,12.16
2023-05-04T19:46:32.538Z,12.11
2023-05-04T19:49:02.097Z,12.11
2023-05-04T19:51:31.655Z,12.12
2023-05-04T19:54:01.248Z,12.06
2023-05-04T19:56:30.823Z,11.99
2023-05-04T19:59:00.696Z,11.99
2023-05-04T20:01:33.003Z,11.89
2023-05-04T20:04:02.711Z,11.85
2023-05-04T20:06:32.289Z,11.77
2023-05-04T20:09:01.828Z,11.71
2023-05-04T20:11:31.404Z,11.71
2023-05-04T20:14:01.147Z,11.62
2023-05-04T20:16:33.283Z,11.59
2023-05-04T20:19:04.065Z,11.55
2023-05-04T20:21:33.949Z,11.54
2023-05-04T20:24:04.268Z,11.47
2023-05-04T20:26:33.837Z,11.33
2023-05-04T20:29:03.483Z,11.21
2023-05-04T20:31:35.860Z,11.18
2023-05-04T20:34:05.429Z,11.15
2023-05-04T20:36:34.990Z,11.04
2023-05-04T20:39:06.855Z,10.98
2023-05-04T20:41:36.665Z,10.93
2023-05-04T20:44:06.437Z,10.80
2023-05-04T20:46:39.024Z,10.72
2023-05-04T20:49:09.112Z,10.61
2023-05-04T20:51:39.638Z,10.57
2023-05-04T20:54:09.516Z,10.45
2023-05-04T20:56:39.151Z,10.35
2023-05-04T20:59:08.696Z,10.33
2023-05-04T21:01:40.938Z,10.29
2023-05-04T21:04:10.733Z,10.19
2023-05-04T21:06:40.286Z,10.08
2023-05-04T21:09:10.704Z,10.08
2023-05-04T21:11:40.913Z,10.07
2023-05-04T21:14:10.504Z,10.08
2023-05-04T21:16:42.584Z,10.05
2023-05-04T21:19:12.128Z,10.01
2023-05-04T21:21:42.517Z,10.01
2023-05-04T21:24:16.408Z,9.95
2023-05-04T21:26:46.115Z,9.87
2023-05-04T21:29:15.858Z,9.87
2023-05-04T21:31:48.005Z,9.93
2023-05-04T21:34:17.628Z,9.94
2023-05-04T21:36:47.210Z,9.81
2023-05-04T21:39:17.191Z,9.71
2023-05-04T21:41:46.764Z,9.69
2023-05-04T21:44:16.428Z,9.68
2023-05-04T21:46:48.547Z,9.78
2023-05-04T21:49:18.065Z,9.73
2023-05-04T21:51:47.624Z,9.73
2023-05-04T21:54:17.154Z,9.67
2023-05-04T21:56:46.733Z,9.66
2023-05-04T21:59:16.304Z,9.62
2023-05-04T22:01:48.495Z,9.50
2023-05-04T22:04:18.085Z,9.30
2023-05-04T22:06:48.409Z,9.09
2023-05-04T22:09:19.185Z,9.05
2023-05-04T22:11:49.696Z,8.96
2023-05-04T22:14:19.413Z,8.96
2023-05-04T22:16:53.034Z,8.94
2023-05-04T22:19:22.651Z,8.89
2023-05-04T22:21:52.275Z,8.98
2023-05-04T22:24:21.882Z,8.99
2023-05-04T22:26:51.393Z,8.99
2023-05-04T22:29:20.966Z,8.89
2023-05-04T22:31:53.056Z,8.77
2023-05-04T22:34:22.620Z,8.74
2023-05-04T22:36:52.130Z,8.77
2023-05-04T22:39:22.217Z,8.69
2023-05-04T22:41:51.786Z,8.65
2023-05-04T22:44:21.380Z,8.62
2023-05-04T22:46:53.641Z,8.57
2023-05-04T22:49:23.188Z,8.52
2023-05-04T22:51:52.722Z,8.40
2023-05-04T22:54:22.298Z,8.30
2023-05-04T22:56:51.896Z,8.24
2023-05-04T22:59:21.484Z,8.27
2023-05-04T23:01:53.679Z,8.23
2023-05-04T23:04:23.554Z,8.19
2023-05-04T23:06:53.107Z,8.16
2023-05-04T23:09:22.716Z,8.13
2023-05-04T23:11:52.334Z,8.10
2023-05-04T23:14:21.845Z,8.05
2023-05-04T23:16:54.176Z,8.06
2023-05-04T23:19:23.659Z,8.00
2023-05-04T23:21:53.202Z,8.00
2023-05-04T23:24:22.729Z,7.96
2023-05-04T23:26:52.482Z,8.04
2023-05-04T23:29:22.132Z,7.94
2023-05-04T23:31:54.294Z,7.76
2023-05-04T23:34:23.838Z,7.70
2023-05-04T23:36:55.912Z,7.63
2023-05-04T23:39:25.377Z,7.63
2023-05-04T23:41:58.430Z,7.56
2023-05-04T23:44:28.186Z,7.50
2023-05-04T23:47:00.288Z,7.60
2023-05-04T23:49:29.785Z,7.66
2023-05-04T23:51:59.339Z,7.63
2023-05-04T23:54:28.961Z,7.54
2023-05-04T23:56:58.895Z,7.45
2023-05-04T23:59:29.131Z,7.44
